createdAt,value
2023-03-26T00:01:36.500Z,90.01
2023-03-26T00:04:07.313Z,90.02
2023-03-26T00:06:39.959Z,89.99
2023-03-26T00:09:13.235Z,90.17
2023-03-26T00:11:41.791Z,90.04
2023-03-26T00:14:14.143Z,89.89
2023-03-26T00:16:44.359Z,89.73
2023-03-26T00:19:12.646Z,89.66
2023-03-26T00:21:40.028Z,89.56
2023-03-26T00:24:17.405Z,89.59
2023-03-26T00:26:48.450Z,89.69
2023-03-26T00:29:15.581Z,89.90
2023-03-26T00:31:45.973Z,90.17
2023-03-26T00:34:15.592Z,90.57
2023-03-26T00:36:43.913Z,90.84
2023-03-26T00:39:11.049Z,90.91
2023-03-26T00:41:43.110Z,90.86
2023-03-26T00:44:11.416Z,91.04
2023-03-26T00:46:38.656Z,90.97
2023-03-26T00:49:05.801Z,91.00
2023-03-26T00:51:34.006Z,90.98
2023-03-26T00:54:01.491Z,90.79
2023-03-26T00:56:28.453Z,90.80
2023-03-26T00:58:55.448Z,90.70
2023-03-26T01:01:27.207Z,90.62
2023-03-26T01:04:19.351Z,90.72
2023-03-26T01:06:46.917Z,90.70
2023-03-26T01:09:19.661Z,90.77
2023-03-26T01:11:49.542Z,90.70
2023-03-26T01:14:23.535Z,91.11
2023-03-26T01:16:59.246Z,91.19
2023-03-26T01:19:39.917Z,91.21
2023-03-26T01:22:13.203Z,90.97
2023-03-26T01:24:41.545Z,90.75
2023-03-26T01:27:41.115Z,90.77
2023-03-26T01:30:30.952Z,90.62
2023-03-26T01:33:29.899Z,90.75
2023-03-26T01:36:25.816Z,91.14
2023-03-26T01:39:31.636Z,91.06
2023-03-26T01:42:09.220Z,91.26
2023-03-26T01:44:51.564Z,90.85
2023-03-26T01:47:21.048Z,90.59
2023-03-26T01:49:48.669Z,90.71
2023-03-26T01:52:25.183Z,90.83
2023-03-26T01:54:55.625Z,91.30
2023-03-26T01:58:19.263Z,91.51
2023-03-26T02:01:06.997Z,91.64
2023-03-26T02:03:50.759Z,91.71
2023-03-26T02:06:47.929Z,91.68
2023-03-26T02:09:24.029Z,91.89
2023-03-26T02:11:51.459Z,91.95
2023-03-26T02:14:18.729Z,91.90
2023-03-26T02:16:46.849Z,92.03
2023-03-26T02:19:21.449Z,91.97
2023-03-26T02:21:52.092Z,91.94
2023-03-26T02:24:20.645Z,92.22
2023-03-26T02:26:50.889Z,92.53
2023-03-26T02:29:20.546Z,93.02
2023-03-26T02:31:49.329Z,92.85
2023-03-26T02:34:17.152Z,92.84
2023-03-26T02:36:51.701Z,93.04
2023-03-26T02:39:19.216Z,92.92
2023-03-26T02:41:54.596Z,93.01
2023-03-26T02:44:22.070Z,93.15
2023-03-26T02:46:58.224Z,93.20
2023-03-26T02:49:44.554Z,93.15
2023-03-26T02:52:18.584Z,93.15
2023-03-26T02:54:48.438Z,93.12
2023-03-26T02:57:20.767Z,93.07
2023-03-26T02:59:50.686Z,92.92
2023-03-26T03:02:41.267Z,92.96
2023-03-26T03:05:38.148Z,92.79
2023-03-26T03:08:28.253Z,92.69
2023-03-26T03:11:24.773Z,92.32
2023-03-26T03:13:53.173Z,92.07
2023-03-26T03:16:26.768Z,92.43
2023-03-26T03:18:57.813Z,92.44
2023-03-26T03:21:29.724Z,92.54
2023-03-26T03:24:00.302Z,92.46
2023-03-26T03:26:30.041Z,92.60
2023-03-26T03:29:01.033Z,92.52
2023-03-26T03:31:28.518Z,92.54
2023-03-26T03:34:01.482Z,92.53
2023-03-26T03:36:33.383Z,92.42
2023-03-26T03:39:07.265Z,92.49
2023-03-26T03:41:35.496Z,92.33
2023-03-26T03:44:06.159Z,92.35
2023-03-26T03:46:34.241Z,92.35
2023-03-26T03:49:01.703Z,92.23
2023-03-26T03:51:33.084Z,92.18
2023-03-26T03:54:03.562Z,91.97
2023-03-26T03:56:51.118Z,91.88
2023-03-26T03:59:38.499Z,91.90
2023-03-26T04:02:26.260Z,91.71
2023-03-26T04:04:57.976Z,91.75
2023-03-26T04:07:26.408Z,91.70
2023-03-26T04:10:08.886Z,91.62
2023-03-26T04:12:58.881Z,91.55
2023-03-26T04:15:43.349Z,91.44
2023-03-26T04:18:11.758Z,91.43
2023-03-26T04:20:47.476Z,91.42
2023-03-26T04:23:22.565Z,91.50
2023-03-26T04:25:58.301Z,91.01
2023-03-26T04:28:59.784Z,91.08
2023-03-26T04:31:31.083Z,91.05
2023-03-26T04:34:23.494Z,91.11
2023-03-26T04:37:24.872Z,91.35
2023-03-26T04:40:09.469Z,91.63
2023-03-26T04:42:46.380Z,91.65
2023-03-26T04:45:22.858Z,91.92
2023-03-26T04:47:59.828Z,91.94
2023-03-26T04:50:27.295Z,92.05
2023-03-26T04:52:57.327Z,91.96
2023-03-26T04:55:52.577Z,92.13
2023-03-26T04:58:37.111Z,91.96
2023-03-26T05:01:10.374Z,92.04
2023-03-26T05:03:41.436Z,92.16
2023-03-26T05:06:13.554Z,92.23
2023-03-26T05:08:41.880Z,92.28
2023-03-26T05:11:15.809Z,92.34
2023-03-26T05:13:42.986Z,92.31
2023-03-26T05:16:13.446Z,92.38
2023-03-26T05:18:46.853Z,92.62
2023-03-26T05:21:14.640Z,92.59
2023-03-26T05:23:41.711Z,92.75
2023-03-26T05:26:20.311Z,93.08
2023-03-26T05:28:48.052Z,93.51
2023-03-26T05:31:28.006Z,93.63
2023-03-26T05:34:00.479Z,93.91
2023-03-26T05:36:30.667Z,93.88
2023-03-26T05:39:16.056Z,94.28
2023-03-26T05:42:07.804Z,94.74
2023-03-26T05:44:50.273Z,95.35
2023-03-26T05:47:23.434Z,95.21
2023-03-26T05:49:51.544Z,95.51
2023-03-26T05:52:19.123Z,95.86
2023-03-26T05:55:04.942Z,95.96
2023-03-26T05:57:50.386Z,96.17
2023-03-26T06:00:48.536Z,96.63
2023-03-26T06:03:23.421Z,96.76
2023-03-26T06:06:20.480Z,96.71
2023-03-26T06:09:02.104Z,96.65
2023-03-26T06:11:34.314Z,96.79
2023-03-26T06:14:03.484Z,96.81
2023-03-26T06:16:31.510Z,96.97
2023-03-26T06:19:19.414Z,97.44
2023-03-26T06:21:50.394Z,98.45
2023-03-26T06:24:31.711Z,98.20
2023-03-26T06:27:08.412Z,97.61
2023-03-26T06:29:54.718Z,97.27
2023-03-26T06:32:39.525Z,97.47
2023-03-26T06:35:11.380Z,97.17
2023-03-26T06:37:38.460Z,97.23
2023-03-26T06:40:07.474Z,97.00
2023-03-26T06:43:08.050Z,96.31
2023-03-26T06:45:55.547Z,96.22
2023-03-26T06:48:42.291Z,96.27
2023-03-26T06:51:43.497Z,96.06
2023-03-26T06:54:16.697Z,95.78
2023-03-26T06:56:47.700Z,95.71
2023-03-26T06:59:33.477Z,95.29
2023-03-26T07:02:19.308Z,95.20
2023-03-26T07:05:05.233Z,94.54
2023-03-26T07:07:51.054Z,94.56
2023-03-26T07:10:57.039Z,94.86
2023-03-26T07:13:45.941Z,95.07
2023-03-26T07:16:31.621Z,95.25
2023-03-26T07:19:21.966Z,95.06
2023-03-26T07:21:50.038Z,95.02
2023-03-26T07:24:37.451Z,95.28
2023-03-26T07:27:53.448Z,94.88
2023-03-26T07:31:07.522Z,94.54
2023-03-26T07:34:06.465Z,94.22
2023-03-26T07:37:08.146Z,94.32
2023-03-26T07:40:19.954Z,94.33
2023-03-26T07:43:51.433Z,94.73
2023-03-26T07:46:37.408Z,94.48
2023-03-26T07:49:17.881Z,94.82
2023-03-26T07:52:03.829Z,94.93
2023-03-26T07:54:55.003Z,95.56
2023-03-26T07:57:52.950Z,96.02
2023-03-26T08:00:56.124Z,96.51
2023-03-26T08:03:46.496Z,96.93
2023-03-26T08:06:36.306Z,97.39
2023-03-26T08:09:57.946Z,98.04
2023-03-26T08:12:53.878Z,98.25
2023-03-26T08:15:49.922Z,98.48
2023-03-26T08:18:51.742Z,98.51
2023-03-26T08:21:36.500Z,98.69
2023-03-26T08:24:27.082Z,99.13
2023-03-26T08:27:25.892Z,98.97
2023-03-26T08:30:15.990Z,99.11
2023-03-26T08:33:05.035Z,99.34
2023-03-26T08:35:33.427Z,99.47
2023-03-26T08:38:00.816Z,99.64
2023-03-26T08:40:54.958Z,99.60
2023-03-26T08:43:22.178Z,99.80
2023-03-26T08:46:16.651Z,99.92
2023-03-26T08:48:54.909Z,99.95
2023-03-26T08:51:40.414Z,100.00
2023-03-26T08:54:48.713Z,100.00
2023-03-26T08:58:05.318Z,99.92
2023-03-26T09:00:57.504Z,99.90
2023-03-26T09:03:58.711Z,99.89
2023-03-26T09:06:48.343Z,100.00
2023-03-26T09:10:02.094Z,99.96
2023-03-26T09:13:18.384Z,99.57
2023-03-26T09:16:26.188Z,99.38
2023-03-26T09:19:14.390Z,99.24
2023-03-26T09:22:17.325Z,99.37
2023-03-26T09:25:19.968Z,98.86
2023-03-26T09:28:08.183Z,99.14
2023-03-26T09:31:02.582Z,98.29
2023-03-26T09:34:04.821Z,97.81
2023-03-26T09:36:57.463Z,98.66
2023-03-26T09:39:38.984Z,99.21
2023-03-26T09:42:54.915Z,98.82
2023-03-26T09:46:14.138Z,98.39
2023-03-26T09:49:22.829Z,97.63
2023-03-26T09:52:12.953Z,97.30
2023-03-26T09:55:02.103Z,97.13
2023-03-26T09:58:22.126Z,95.89
2023-03-26T10:01:40.685Z,96.29
2023-03-26T10:04:23.759Z,96.77
2023-03-26T10:07:24.805Z,96.93
2023-03-26T10:10:25.786Z,96.74
2023-03-26T10:13:16.642Z,96.60
2023-03-26T10:16:12.286Z,96.31
2023-03-26T10:18:57.892Z,96.15
2023-03-26T10:21:43.217Z,96.27
2023-03-26T10:24:16.241Z,96.45
2023-03-26T10:27:08.689Z,97.46
2023-03-26T10:30:22.808Z,97.86
2023-03-26T10:33:30.466Z,97.23
2023-03-26T10:36:34.314Z,95.30
2023-03-26T10:39:36.759Z,95.30
2023-03-26T10:42:58.454Z,95.34
2023-03-26T10:45:53.280Z,94.59
2023-03-26T10:49:04.322Z,93.71
2023-03-26T10:51:48.710Z,95.01
2023-03-26T10:54:30.970Z,96.31
2023-03-26T10:57:00.735Z,96.63
2023-03-26T10:59:27.914Z,96.20
2023-03-26T11:02:29.441Z,96.24
2023-03-26T11:05:26.420Z,95.57
2023-03-26T11:08:07.175Z,95.87
2023-03-26T11:10:42.835Z,96.38
2023-03-26T11:13:34.881Z,96.38
2023-03-26T11:16:27.682Z,97.02
2023-03-26T11:19:16.740Z,97.11
2023-03-26T11:22:32.424Z,97.21
2023-03-26T11:25:43.329Z,95.54
2023-03-26T11:32:11.645Z,95.48
2023-03-26T11:34:36.678Z,95.30
2023-03-26T11:34:42.946Z,96.72
2023-03-26T11:37:38.694Z,96.73
2023-03-26T11:40:20.352Z,96.31
2023-03-26T11:42:55.973Z,96.38
2023-03-26T11:45:29.696Z,96.81
2023-03-26T11:48:09.325Z,96.47
2023-03-26T11:50:47.995Z,94.34
2023-03-26T11:53:19.516Z,94.46
2023-03-26T11:55:58.633Z,94.33
2023-03-26T11:58:43.206Z,93.77
2023-03-26T12:01:19.115Z,94.18
2023-03-26T12:03:59.016Z,94.30
2023-03-26T12:06:28.919Z,93.73
2023-03-26T12:08:57.030Z,93.89
2023-03-26T12:11:34.619Z,93.54
2023-03-26T12:14:05.650Z,93.02
2023-03-26T12:16:34.527Z,93.91
2023-03-26T12:19:19.622Z,94.70
2023-03-26T12:21:52.918Z,95.15
2023-03-26T12:24:31.772Z,94.72
2023-03-26T12:27:33.190Z,94.82
2023-03-26T12:30:33.822Z,95.53
2023-03-26T12:33:08.817Z,94.87
2023-03-26T12:35:36.671Z,94.60
2023-03-26T12:38:35.778Z,95.65
2023-03-26T12:43:40.206Z,95.85
2023-03-26T12:44:49.338Z,94.05
2023-03-26T12:48:00.766Z,94.40
2023-03-26T12:50:34.680Z,93.56
2023-03-26T12:53:41.465Z,94.14
2023-03-26T12:56:38.778Z,94.74
2023-03-26T12:59:21.790Z,92.54
2023-03-26T13:02:22.639Z,91.96
2023-03-26T13:05:36.513Z,91.27
2023-03-26T13:08:20.280Z,92.83
2023-03-26T13:10:50.041Z,92.75
2023-03-26T13:13:36.362Z,93.88
2023-03-26T13:16:34.012Z,93.71
2023-03-26T13:19:16.103Z,93.98
2023-03-26T13:22:28.350Z,94.46
2023-03-26T13:25:34.751Z,93.87
2023-03-26T13:28:26.290Z,94.98
2023-03-26T13:31:28.082Z,94.92
2023-03-26T13:34:11.415Z,94.99
2023-03-26T13:37:12.799Z,94.52
2023-03-26T13:40:10.277Z,96.31
2023-03-26T13:43:25.702Z,96.25
2023-03-26T13:46:18.279Z,95.67
2023-03-26T13:48:59.898Z,94.16
2023-03-26T13:51:56.725Z,94.90
2023-03-26T13:54:32.471Z,93.34
2023-03-26T13:57:20.300Z,94.25
2023-03-26T14:00:17.272Z,95.39
2023-03-26T14:02:53.275Z,95.85
2023-03-26T14:05:35.479Z,97.17
2023-03-26T14:08:25.866Z,97.65
2023-03-26T14:11:06.342Z,97.79
2023-03-26T14:13:46.701Z,97.76
2023-03-26T14:16:24.057Z,97.38
2023-03-26T14:19:40.353Z,96.34
2023-03-26T14:22:25.038Z,97.56
2023-03-26T14:26:01.271Z,98.32
2023-03-26T14:29:24.289Z,97.74
2023-03-26T14:32:31.329Z,96.72
2023-03-26T14:35:21.039Z,96.26
2023-03-26T14:38:14.229Z,96.29
2023-03-26T14:40:58.088Z,96.67
2023-03-26T14:44:16.439Z,97.17
2023-03-26T14:46:57.839Z,95.97
2023-03-26T14:49:57.977Z,96.44
2023-03-26T14:52:47.824Z,96.82
2023-03-26T14:55:31.719Z,97.53
2023-03-26T14:58:35.963Z,97.31
2023-03-26T15:01:15.985Z,95.45
2023-03-26T15:04:39.420Z,94.44
2023-03-26T15:07:34.976Z,94.45
2023-03-26T15:11:16.511Z,93.53
2023-03-26T15:14:17.323Z,92.15
2023-03-26T15:17:31.622Z,92.31
2023-03-26T15:20:49.754Z,91.34
2023-03-26T15:23:19.587Z,92.14
2023-03-26T15:26:24.169Z,90.80
2023-03-26T15:29:15.468Z,89.61
2023-03-26T15:32:14.929Z,90.31
2023-03-26T15:35:46.130Z,87.96
2023-03-26T15:39:07.005Z,86.87
2023-03-26T15:42:05.251Z,84.82
2023-03-26T15:44:54.098Z,83.14
2023-03-26T15:47:37.300Z,83.28
2023-03-26T15:50:38.011Z,82.41
2023-03-26T15:53:42.340Z,83.30
2023-03-26T15:56:32.772Z,82.15
2023-03-26T15:59:37.272Z,81.15
2023-03-26T16:02:41.802Z,81.09
2023-03-26T16:06:09.217Z,80.83
2023-03-26T16:09:04.707Z,80.95
2023-03-26T16:11:58.720Z,79.70
2023-03-26T16:14:34.498Z,79.82
2023-03-26T16:17:06.385Z,80.21
2023-03-26T16:19:46.029Z,80.14
2023-03-26T16:22:42.933Z,78.54
2023-03-26T16:25:34.794Z,77.86
2023-03-26T16:28:10.749Z,77.96
2023-03-26T16:30:39.044Z,76.51
2023-03-26T16:33:21.166Z,75.99
2023-03-26T16:36:14.847Z,75.49
2023-03-26T16:39:16.612Z,75.80
2023-03-26T16:41:46.805Z,75.27
2023-03-26T16:44:53.243Z,75.21
2023-03-26T16:47:37.362Z,76.47
2023-03-26T16:50:34.150Z,77.53
2023-03-26T16:53:42.327Z,79.73
2023-03-26T16:56:54.416Z,76.88
2023-03-26T17:00:18.357Z,78.25
2023-03-26T17:03:12.925Z,75.25
2023-03-26T17:05:56.521Z,76.20
2023-03-26T17:08:48.397Z,74.93
2023-03-26T17:11:25.810Z,75.47
2023-03-26T17:14:24.788Z,76.78
2023-03-26T17:17:19.601Z,73.79
2023-03-26T17:20:19.180Z,73.29
2023-03-26T17:22:56.282Z,73.77
2023-03-26T17:25:39.895Z,73.44
2023-03-26T17:28:27.491Z,72.56
2023-03-26T17:31:03.345Z,73.25
2023-03-26T17:33:41.958Z,72.70
2023-03-26T17:36:12.037Z,73.27
2023-03-26T17:38:38.969Z,75.22
2023-03-26T17:41:09.222Z,74.60
2023-03-26T17:43:52.137Z,74.45
2023-03-26T17:46:22.191Z,75.33
2023-03-26T17:49:07.074Z,74.05
2023-03-26T17:51:48.819Z,73.71
2023-03-26T17:54:34.005Z,73.44
2023-03-26T17:57:12.932Z,73.67
2023-03-26T17:59:43.115Z,73.79
2023-03-26T18:02:22.188Z,73.39
2023-03-26T18:04:55.483Z,72.09
2023-03-26T18:08:00.020Z,72.48
2023-03-26T18:10:42.056Z,73.25
2023-03-26T18:13:36.556Z,72.35
2023-03-26T18:16:14.903Z,73.20
2023-03-26T18:18:49.934Z,73.83
2023-03-26T18:21:35.935Z,73.64
2023-03-26T18:24:13.435Z,72.67
2023-03-26T18:26:49.526Z,73.47
2023-03-26T18:29:29.437Z,72.52
2023-03-26T18:32:00.876Z,71.68
2023-03-26T18:34:34.083Z,71.09
2023-03-26T18:37:18.734Z,71.12
2023-03-26T18:40:19.025Z,70.29
2023-03-26T18:42:53.133Z,68.71
2023-03-26T18:45:23.095Z,68.71
2023-03-26T18:47:56.345Z,69.91
2023-03-26T18:50:29.340Z,69.53
2023-03-26T18:53:00.339Z,69.13
2023-03-26T18:55:30.381Z,69.28
2023-03-26T18:57:57.785Z,68.74
2023-03-26T19:00:30.308Z,69.23
2023-03-26T19:03:05.130Z,68.87
2023-03-26T19:05:35.712Z,68.52
2023-03-26T19:08:06.315Z,68.35
2023-03-26T19:10:33.988Z,69.04
2023-03-26T19:13:04.028Z,67.61
2023-03-26T19:15:34.848Z,68.17
2023-03-26T19:18:14.042Z,67.88
2023-03-26T19:20:52.601Z,68.19
2023-03-26T19:23:34.602Z,68.68
2023-03-26T19:26:05.642Z,68.41
2023-03-26T19:28:54.147Z,70.05
2023-03-26T19:31:32.179Z,69.11
2023-03-26T19:34:33.671Z,67.31
2023-03-26T19:37:15.854Z,67.26
2023-03-26T19:39:47.724Z,68.30
2023-03-26T19:42:19.567Z,67.48
2023-03-26T19:44:47.823Z,66.80
2023-03-26T19:47:39.103Z,67.02
2023-03-26T19:50:33.096Z,67.51
2023-03-26T19:53:19.134Z,66.23
2023-03-26T19:55:59.854Z,65.93
2023-03-26T19:58:27.636Z,65.18
2023-03-26T20:00:56.231Z,65.28
2023-03-26T20:03:29.451Z,66.07
2023-03-26T20:05:56.571Z,66.03
2023-03-26T20:08:29.801Z,65.62
2023-03-26T20:10:58.170Z,64.70
2023-03-26T20:13:25.819Z,66.22
2023-03-26T20:16:07.526Z,64.80
2023-03-26T20:18:35.263Z,64.28
2023-03-26T20:21:09.883Z,64.72
2023-03-26T20:23:37.039Z,64.88
2023-03-26T20:26:04.065Z,65.39
2023-03-26T20:28:38.676Z,65.73
2023-03-26T20:31:19.403Z,65.01
2023-03-26T20:33:47.915Z,66.46
2023-03-26T20:36:34.037Z,65.98
2023-03-26T20:39:08.117Z,67.28
2023-03-26T20:41:43.174Z,66.79
2023-03-26T20:44:17.027Z,67.19
2023-03-26T20:46:46.032Z,67.66
2023-03-26T20:49:14.979Z,69.15
2023-03-26T20:51:42.247Z,70.20
2023-03-26T20:54:21.352Z,69.84
2023-03-26T20:56:49.588Z,69.36
2023-03-26T20:59:26.427Z,69.44
2023-03-26T21:01:56.858Z,69.77
2023-03-26T21:04:24.970Z,70.32
2023-03-26T21:06:55.362Z,70.63
2023-03-26T21:09:35.464Z,71.32
2023-03-26T21:12:08.738Z,71.53
2023-03-26T21:14:41.628Z,71.29
2023-03-26T21:17:19.531Z,71.40
2023-03-26T21:19:47.657Z,71.22
2023-03-26T21:22:54.745Z,71.75
2023-03-26T21:26:09.425Z,72.56
2023-03-26T21:28:47.925Z,72.58
2023-03-26T21:31:20.617Z,72.76
2023-03-26T21:33:49.394Z,72.92
2023-03-26T21:36:19.884Z,73.55
2023-03-26T21:38:47.420Z,73.75
2023-03-26T21:41:23.270Z,73.79
2023-03-26T21:43:51.442Z,73.32
2023-03-26T21:46:19.092Z,73.87
2023-03-26T21:48:46.522Z,74.23
2023-03-26T21:51:15.205Z,73.80
2023-03-26T21:53:42.982Z,74.53
2023-03-26T21:56:35.000Z,74.99
2023-03-26T21:59:19.973Z,74.95
2023-03-26T22:01:58.067Z,74.54
2023-03-26T22:04:41.842Z,74.50
2023-03-26T22:07:17.980Z,74.28
2023-03-26T22:09:45.516Z,73.65
2023-03-26T22:12:13.405Z,74.27
2023-03-26T22:14:40.634Z,74.67
2023-03-26T22:17:07.591Z,74.68
2023-03-26T22:19:34.701Z,74.69
2023-03-26T22:22:02.644Z,74.77
2023-03-26T22:24:29.757Z,75.05
2023-03-26T22:26:56.720Z,75.02
2023-03-26T22:29:23.902Z,74.88
2023-03-26T22:31:51.318Z,75.44
2023-03-26T22:34:19.655Z,75.50
2023-03-26T22:36:46.958Z,75.64
2023-03-26T22:39:14.348Z,75.39
2023-03-26T22:41:41.531Z,75.69
2023-03-26T22:44:19.909Z,76.39
2023-03-26T22:46:51.143Z,76.75
2023-03-26T22:49:18.629Z,76.87
2023-03-26T22:51:45.957Z,77.04
2023-03-26T22:54:13.216Z,77.45
2023-03-26T22:56:40.546Z,77.40
2023-03-26T22:59:07.530Z,77.71
2023-03-26T23:01:34.904Z,77.94
2023-03-26T23:04:02.238Z,78.06
2023-03-26T23:06:29.636Z,78.18
2023-03-26T23:08:57.016Z,78.58
2023-03-26T23:11:24.288Z,78.32
2023-03-26T23:13:51.704Z,78.62
2023-03-26T23:16:21.439Z,78.87
2023-03-26T23:18:48.854Z,79.04
2023-03-26T23:21:19.696Z,78.81
2023-03-26T23:23:49.282Z,78.78
2023-03-26T23:26:16.670Z,79.28
2023-03-26T23:28:43.816Z,79.65
2023-03-26T23:31:13.047Z,79.67
2023-03-26T23:33:50.438Z,79.59
2023-03-26T23:36:20.151Z,79.71
2023-03-26T23:38:48.910Z,79.95
2023-03-26T23:41:21.538Z,80.03
2023-03-26T23:43:55.553Z,80.48
2023-03-26T23:46:30.181Z,80.03
2023-03-26T23:49:00.002Z,80.32
2023-03-26T23:51:27.272Z,80.46
2023-03-26T23:53:54.295Z,80.48
2023-03-26T23:56:21.461Z,80.57
2023-03-26T23:58:49.011Z,80.80
